sensor_id;sensor_type;location;lat;lon;timestamp;temperature;humidity
68813;DHT22;55808;48.112;11.552;2022-08-19T00:00:29;17.60;99.90
68813;DHT22;55808;48.112;11.552;2022-08-19T00:02:55;17.60;99.90
68813;DHT22;55808;48.112;11.552;2022-08-19T00:05:21;17.70;99.90
68813;DHT22;55808;48.112;11.552;2022-08-19T00:07:48;17.70;99.90
68813;DHT22;55808;48.112;11.552;2022-08-19T00:10:15;17.80;99.90
68813;DHT22;55808;48.112;11.552;2022-08-19T00:12:42;17.80;99.90
68813;DHT22;55808;48.112;11.552;2022-08-19T00:15:11;17.70;99.90
68813;DHT22;55808;48.112;11.552;2022-08-19T00:17:42;17.70;99.90
68813;DHT22;55808;48.112;11.552;2022-08-19T00:20:10;17.70;99.90
68813;DHT22;55808;48.112;11.552;2022-08-19T00:22:37;17.70;99.90
68813;DHT22;55808;48.112;11.552;2022-08-19T00:25:04;17.70;99.90
68813;DHT22;55808;48.112;11.552;2022-08-19T00:27:31;17.60;99.90
68813;DHT22;55808;48.112;11.552;2022-08-19T00:29:56;17.60;99.90
68813;DHT22;55808;48.112;11.552;2022-08-19T00:32:24;17.60;99.90
68813;DHT22;55808;48.112;11.552;2022-08-19T00:34:51;17.60;99.90
68813;DHT22;55808;48.112;11.552;2022-08-19T00:37:18;17.70;99.90
68813;DHT22;55808;48.112;11.552;2022-08-19T00:39:44;17.70;99.90
68813;DHT22;55808;48.112;11.552;2022-08-19T00:42:10;17.70;99.90
68813;DHT22;55808;48.112;11.552;2022-08-19T00:44:36;17.70;99.90
68813;DHT22;55808;48.112;11.552;2022-08-19T00:47:02;17.70;99.90
68813;DHT22;55808;48.112;11.552;2022-08-19T00:49:35;17.70;99.90
68813;DHT22;55808;48.112;11.552;2022-08-19T00:52:07;17.70;99.90
68813;DHT22;55808;48.112;11.552;2022-08-19T00:54:36;17.70;99.90
68813;DHT22;55808;48.112;11.552;2022-08-19T00:57:05;17.70;99.90
68813;DHT22;55808;48.112;11.552;2022-08-19T00:59:35;17.70;99.90
68813;DHT22;55808;48.112;11.552;2022-08-19T01:02:02;17.70;99.90
68813;DHT22;55808;48.112;11.552;2022-08-19T01:04:27;17.70;99.90
68813;DHT22;55808;48.112;11.552;2022-08-19T01:06:53;17.70;99.90
68813;DHT22;55808;48.112;11.552;2022-08-19T01:09:19;17.70;99.90
68813;DHT22;55808;48.112;11.552;2022-08-19T01:11:45;17.70;99.90
68813;DHT22;55808;48.112;11.552;2022-08-19T01:14:11;17.70;99.90
68813;DHT22;55808;48.112;11.552;2022-08-19T01:16:38;17.70;99.90
68813;DHT22;55808;48.112;11.552;2022-08-19T01:19:46;17.70;99.90
68813;DHT22;55808;48.112;11.552;2022-08-19T01:22:16;17.70;99.90
68813;DHT22;55808;48.112;11.552;2022-08-19T01:24:45;17.70;99.90
68813;DHT22;55808;48.112;11.552;2022-08-19T01:27:10;17.70;99.90
68813;DHT22;55808;48.112;11.552;2022-08-19T01:29:38;17.70;99.90
68813;DHT22;55808;48.112;11.552;2022-08-19T01:32:05;17.70;99.90
68813;DHT22;55808;48.112;11.552;2022-08-19T01:34:31;17.70;99.90
68813;DHT22;55808;48.112;11.552;2022-08-19T01:36:59;17.70;99.90
68813;DHT22;55808;48.112;11.552;2022-08-19T01:39:27;17.70;99.90
68813;DHT22;55808;48.112;11.552;2022-08-19T01:41:53;17.70;99.90
68813;DHT22;55808;48.112;11.552;2022-08-19T01:44:22;17.80;99.90
68813;DHT22;55808;48.112;11.552;2022-08-19T01:46:50;17.80;99.90
68813;DHT22;55808;48.112;11.552;2022-08-19T01:49:18;17.80;99.90
68813;DHT22;55808;48.112;11.552;2022-08-19T01:51:44;17.90;99.90
68813;DHT22;55808;48.112;11.552;2022-08-19T01:54:12;17.90;99.90
68813;DHT22;55808;48.112;11.552;2022-08-19T01:56:38;17.80;99.90
68813;DHT22;55808;48.112;11.552;2022-08-19T01:59:10;17.80;99.90
68813;DHT22;55808;48.112;11.552;2022-08-19T02:01:37;17.90;99.90
68813;DHT22;55808;48.112;11.552;2022-08-19T02:04:03;17.80;99.90
68813;DHT22;55808;48.112;11.552;2022-08-19T02:06:29;17.80;99.90
68813;DHT22;55808;48.112;11.552;2022-08-19T02:08:55;17.80;99.90
68813;DHT22;55808;48.112;11.552;2022-08-19T02:11:26;17.80;99.90
68813;DHT22;55808;48.112;11.552;2022-08-19T02:13:53;17.90;99.90
68813;DHT22;55808;48.112;11.552;2022-08-19T02:16:19;17.90;99.90
68813;DHT22;55808;48.112;11.552;2022-08-19T02:18:46;17.80;99.90
68813;DHT22;55808;48.112;11.552;2022-08-19T02:21:17;17.70;99.90
68813;DHT22;55808;48.112;11.552;2022-08-19T02:23:43;17.70;99.90
68813;DHT22;55808;48.112;11.552;2022-08-19T02:26:09;17.70;99.90
68813;DHT22;55808;48.112;11.552;2022-08-19T02:28:36;17.80;99.90
68813;DHT22;55808;48.112;11.552;2022-08-19T02:31:03;17.80;99.90
68813;DHT22;55808;48.112;11.552;2022-08-19T02:33:29;17.80;99.90
68813;DHT22;55808;48.112;11.552;2022-08-19T02:35:54;17.80;99.90
68813;DHT22;55808;48.112;11.552;2022-08-19T02:38:20;17.80;99.90
68813;DHT22;55808;48.112;11.552;2022-08-19T02:41:01;17.80;99.90
68813;DHT22;55808;48.112;11.552;2022-08-19T02:43:29;17.80;99.90
68813;DHT22;55808;48.112;11.552;2022-08-19T02:45:55;17.70;99.90
68813;DHT22;55808;48.112;11.552;2022-08-19T02:48:23;17.60;99.90
68813;DHT22;55808;48.112;11.552;2022-08-19T02:50:51;17.70;99.90
68813;DHT22;55808;48.112;11.552;2022-08-19T02:53:22;17.70;99.90
68813;DHT22;55808;48.112;11.552;2022-08-19T02:55:48;17.60;99.90
68813;DHT22;55808;48.112;11.552;2022-08-19T02:58:15;17.60;99.90
68813;DHT22;55808;48.112;11.552;2022-08-19T03:00:47;17.70;99.90
68813;DHT22;55808;48.112;11.552;2022-08-19T03:03:15;17.60;99.90
68813;DHT22;55808;48.112;11.552;2022-08-19T03:05:41;17.60;99.90
68813;DHT22;55808;48.112;11.552;2022-08-19T03:08:08;17.60;99.90
68813;DHT22;55808;48.112;11.552;2022-08-19T03:10:40;17.70;99.90
68813;DHT22;55808;48.112;11.552;2022-08-19T03:13:08;17.60;99.90
68813;DHT22;55808;48.112;11.552;2022-08-19T03:15:34;17.60;99.90
68813;DHT22;55808;48.112;11.552;2022-08-19T03:17:59;17.60;99.90
68813;DHT22;55808;48.112;11.552;2022-08-19T03:20:25;17.60;99.90
68813;DHT22;55808;48.112;11.552;2022-08-19T03:22:51;17.60;99.90
68813;DHT22;55808;48.112;11.552;2022-08-19T03:25:17;17.60;99.90
68813;DHT22;55808;48.112;11.552;2022-08-19T03:27:43;17.60;99.90
68813;DHT22;55808;48.112;11.552;2022-08-19T03:30:10;17.70;99.90
68813;DHT22;55808;48.112;11.552;2022-08-19T03:32:36;17.60;99.90
68813;DHT22;55808;48.112;11.552;2022-08-19T03:35:02;17.60;99.90
68813;DHT22;55808;48.112;11.552;2022-08-19T03:37:27;17.60;99.90
68813;DHT22;55808;48.112;11.552;2022-08-19T03:39:53;17.60;99.90
68813;DHT22;55808;48.112;11.552;2022-08-19T03:42:19;17.60;99.90
68813;DHT22;55808;48.112;11.552;2022-08-19T03:44:45;17.60;99.90
68813;DHT22;55808;48.112;11.552;2022-08-19T03:47:10;17.60;99.90
68813;DHT22;55808;48.112;11.552;2022-08-19T03:49:41;17.50;99.90
68813;DHT22;55808;48.112;11.552;2022-08-19T03:52:06;17.60;99.90
68813;DHT22;55808;48.112;11.552;2022-08-19T03:54:33;17.60;99.90
68813;DHT22;55808;48.112;11.552;2022-08-19T03:56:59;17.60;99.90
68813;DHT22;55808;48.112;11.552;2022-08-19T03:59:31;17.70;99.90
68813;DHT22;55808;48.112;11.552;2022-08-19T04:01:59;17.70;99.90
68813;DHT22;55808;48.112;11.552;2022-08-19T04:04:25;17.70;99.90
68813;DHT22;55808;48.112;11.552;2022-08-19T04:06:51;17.70;99.90
68813;DHT22;55808;48.112;11.552;2022-08-19T04:09:18;17.70;99.90
68813;DHT22;55808;48.112;11.552;2022-08-19T04:11:47;17.70;99.90
68813;DHT22;55808;48.112;11.552;2022-08-19T04:14:19;17.70;99.90
68813;DHT22;55808;48.112;11.552;2022-08-19T04:16:46;17.70;99.90
68813;DHT22;55808;48.112;11.552;2022-08-19T04:19:13;17.70;99.90
68813;DHT22;55808;48.112;11.552;2022-08-19T04:21:40;17.70;99.90
68813;DHT22;55808;48.112;11.552;2022-08-19T04:24:06;17.70;99.90
68813;DHT22;55808;48.112;11.552;2022-08-19T04:26:35;17.80;99.90
68813;DHT22;55808;48.112;11.552;2022-08-19T04:29:06;17.80;99.90
68813;DHT22;55808;48.112;11.552;2022-08-19T04:31:33;17.90;99.90
68813;DHT22;55808;48.112;11.552;2022-08-19T04:34:04;17.90;99.90
68813;DHT22;55808;48.112;11.552;2022-08-19T04:36:32;17.90;99.90
68813;DHT22;55808;48.112;11.552;2022-08-19T04:39:00;17.90;99.90
68813;DHT22;55808;48.112;11.552;2022-08-19T04:41:26;17.80;99.90
68813;DHT22;55808;48.112;11.552;2022-08-19T04:44:11;17.80;99.90
68813;DHT22;55808;48.112;11.552;2022-08-19T04:46:38;17.90;99.90
68813;DHT22;55808;48.112;11.552;2022-08-19T04:49:05;17.80;99.90
68813;DHT22;55808;48.112;11.552;2022-08-19T04:51:32;17.80;99.90
68813;DHT22;55808;48.112;11.552;2022-08-19T04:53:58;17.80;99.90
68813;DHT22;55808;48.112;11.552;2022-08-19T04:56:25;17.80;99.90
68813;DHT22;55808;48.112;11.552;2022-08-19T04:58:53;17.80;99.90
68813;DHT22;55808;48.112;11.552;2022-08-19T05:01:22;17.80;99.90
68813;DHT22;55808;48.112;11.552;2022-08-19T05:03:48;17.80;99.90
68813;DHT22;55808;48.112;11.552;2022-08-19T05:06:16;17.90;99.90
68813;DHT22;55808;48.112;11.552;2022-08-19T05:08:42;17.90;99.90
68813;DHT22;55808;48.112;11.552;2022-08-19T05:11:33;17.90;99.90
68813;DHT22;55808;48.112;11.552;2022-08-19T05:13:59;18.00;99.90
68813;DHT22;55808;48.112;11.552;2022-08-19T05:16:25;18.00;99.90
68813;DHT22;55808;48.112;11.552;2022-08-19T05:18:52;18.00;99.90
68813;DHT22;55808;48.112;11.552;2022-08-19T05:21:37;17.90;99.90
68813;DHT22;55808;48.112;11.552;2022-08-19T05:24:22;18.00;99.90
68813;DHT22;55808;48.112;11.552;2022-08-19T05:26:49;18.00;99.90
68813;DHT22;55808;48.112;11.552;2022-08-19T05:29:18;18.00;99.90
68813;DHT22;55808;48.112;11.552;2022-08-19T05:31:48;18.00;99.90
68813;DHT22;55808;48.112;11.552;2022-08-19T05:34:17;17.90;99.90
68813;DHT22;55808;48.112;11.552;2022-08-19T05:36:47;17.90;99.90
68813;DHT22;55808;48.112;11.552;2022-08-19T05:39:16;18.00;99.90
68813;DHT22;55808;48.112;11.552;2022-08-19T05:41:46;17.90;99.90
68813;DHT22;55808;48.112;11.552;2022-08-19T05:44:12;17.90;99.90
68813;DHT22;55808;48.112;11.552;2022-08-19T05:46:39;17.90;99.90
68813;DHT22;55808;48.112;11.552;2022-08-19T05:49:06;17.90;99.90
68813;DHT22;55808;48.112;11.552;2022-08-19T05:51:32;18.00;99.90
68813;DHT22;55808;48.112;11.552;2022-08-19T05:54:03;18.00;99.90
68813;DHT22;55808;48.112;11.552;2022-08-19T05:56:31;18.00;99.90
68813;DHT22;55808;48.112;11.552;2022-08-19T05:58:58;18.10;99.90
68813;DHT22;55808;48.112;11.552;2022-08-19T06:01:25;18.00;99.90
68813;DHT22;55808;48.112;11.552;2022-08-19T06:03:51;18.00;99.90
68813;DHT22;55808;48.112;11.552;2022-08-19T06:06:17;18.00;99.90
68813;DHT22;55808;48.112;11.552;2022-08-19T06:08:43;18.00;99.90
68813;DHT22;55808;48.112;11.552;2022-08-19T06:11:17;17.90;99.90
68813;DHT22;55808;48.112;11.552;2022-08-19T06:13:44;17.90;99.90
68813;DHT22;55808;48.112;11.552;2022-08-19T06:16:19;17.90;99.90
68813;DHT22;55808;48.112;11.552;2022-08-19T06:18:51;17.90;99.90
68813;DHT22;55808;48.112;11.552;2022-08-19T06:21:19;17.90;99.90
68813;DHT22;55808;48.112;11.552;2022-08-19T06:23:46;17.90;99.90
68813;DHT22;55808;48.112;11.552;2022-08-19T06:26:13;17.90;99.90
68813;DHT22;55808;48.112;11.552;2022-08-19T06:28:39;17.80;99.90
68813;DHT22;55808;48.112;11.552;2022-08-19T06:31:13;17.90;99.90
68813;DHT22;55808;48.112;11.552;2022-08-19T06:33:40;17.80;99.90
68813;DHT22;55808;48.112;11.552;2022-08-19T06:36:06;17.80;99.90
68813;DHT22;55808;48.112;11.552;2022-08-19T06:38:32;17.70;99.90
68813;DHT22;55808;48.112;11.552;2022-08-19T06:41:05;17.80;99.90
68813;DHT22;55808;48.112;11.552;2022-08-19T06:43:30;17.90;99.90
68813;DHT22;55808;48.112;11.552;2022-08-19T06:45:56;18.00;99.90
68813;DHT22;55808;48.112;11.552;2022-08-19T06:48:22;18.00;99.90
68813;DHT22;55808;48.112;11.552;2022-08-19T06:50:48;17.90;99.90
68813;DHT22;55808;48.112;11.552;2022-08-19T06:53:20;17.90;99.90
68813;DHT22;55808;48.112;11.552;2022-08-19T06:55:46;17.90;99.90
68813;DHT22;55808;48.112;11.552;2022-08-19T06:58:14;17.90;99.90
68813;DHT22;55808;48.112;11.552;2022-08-19T07:00:41;18.00;99.90
68813;DHT22;55808;48.112;11.552;2022-08-19T07:03:06;18.00;99.90
68813;DHT22;55808;48.112;11.552;2022-08-19T07:05:39;18.00;99.90
68813;DHT22;55808;48.112;11.552;2022-08-19T07:08:04;18.00;99.90
68813;DHT22;55808;48.112;11.552;2022-08-19T07:10:32;18.00;99.90
68813;DHT22;55808;48.112;11.552;2022-08-19T07:13:00;17.90;99.90
68813;DHT22;55808;48.112;11.552;2022-08-19T07:15:27;18.00;99.90
68813;DHT22;55808;48.112;11.552;2022-08-19T07:17:52;18.10;99.90
68813;DHT22;55808;48.112;11.552;2022-08-19T07:20:18;18.10;99.90
68813;DHT22;55808;48.112;11.552;2022-08-19T07:22:44;18.00;99.90
68813;DHT22;55808;48.112;11.552;2022-08-19T07:25:10;18.10;99.90
68813;DHT22;55808;48.112;11.552;2022-08-19T07:27:38;18.20;99.90
68813;DHT22;55808;48.112;11.552;2022-08-19T07:30:05;18.20;99.90
68813;DHT22;55808;48.112;11.552;2022-08-19T07:32:32;18.10;99.90
68813;DHT22;55808;48.112;11.552;2022-08-19T07:34:59;18.20;99.90
68813;DHT22;55808;48.112;11.552;2022-08-19T07:37:25;18.20;99.90
68813;DHT22;55808;48.112;11.552;2022-08-19T07:39:54;18.30;99.90
68813;DHT22;55808;48.112;11.552;2022-08-19T07:42:20;18.20;99.90
68813;DHT22;55808;48.112;11.552;2022-08-19T07:44:46;18.10;99.90
68813;DHT22;55808;48.112;11.552;2022-08-19T07:47:12;18.30;99.90
68813;DHT22;55808;48.112;11.552;2022-08-19T07:49:38;18.40;99.90
68813;DHT22;55808;48.112;11.552;2022-08-19T07:52:07;18.50;99.90
68813;DHT22;55808;48.112;11.552;2022-08-19T07:54:35;18.60;99.90
68813;DHT22;55808;48.112;11.552;2022-08-19T07:57:02;18.30;99.90
68813;DHT22;55808;48.112;11.552;2022-08-19T07:59:28;18.30;99.90
68813;DHT22;55808;48.112;11.552;2022-08-19T08:01:55;18.40;99.90
68813;DHT22;55808;48.112;11.552;2022-08-19T08:04:24;18.30;99.90
68813;DHT22;55808;48.112;11.552;2022-08-19T08:07:08;18.30;99.90
68813;DHT22;55808;48.112;11.552;2022-08-19T08:09:52;18.30;99.90
68813;DHT22;55808;48.112;11.552;2022-08-19T08:12:21;18.20;99.90
68813;DHT22;55808;48.112;11.552;2022-08-19T08:14:51;18.20;99.90
68813;DHT22;55808;48.112;11.552;2022-08-19T08:17:22;18.20;99.90
68813;DHT22;55808;48.112;11.552;2022-08-19T08:19:49;18.20;99.90
68813;DHT22;55808;48.112;11.552;2022-08-19T08:22:19;18.20;99.90
68813;DHT22;55808;48.112;11.552;2022-08-19T08:25:11;18.30;99.90
68813;DHT22;55808;48.112;11.552;2022-08-19T08:27:38;18.30;99.90
68813;DHT22;55808;48.112;11.552;2022-08-19T08:30:10;18.20;99.90
68813;DHT22;55808;48.112;11.552;2022-08-19T08:32:37;18.20;99.90
68813;DHT22;55808;48.112;11.552;2022-08-19T08:35:08;18.20;99.90
68813;DHT22;55808;48.112;11.552;2022-08-19T08:37:34;18.20;99.90
68813;DHT22;55808;48.112;11.552;2022-08-19T08:40:05;18.20;99.90
68813;DHT22;55808;48.112;11.552;2022-08-19T08:42:34;18.20;99.90
68813;DHT22;55808;48.112;11.552;2022-08-19T08:45:14;18.20;99.90
68813;DHT22;55808;48.112;11.552;2022-08-19T08:47:45;18.30;99.90
68813;DHT22;55808;48.112;11.552;2022-08-19T08:52:51;18.40;99.90
68813;DHT22;55808;48.112;11.552;2022-08-19T08:55:25;18.40;99.90
68813;DHT22;55808;48.112;11.552;2022-08-19T08:57:58;18.40;99.90
68813;DHT22;55808;48.112;11.552;2022-08-19T09:00:29;18.30;99.90
68813;DHT22;55808;48.112;11.552;2022-08-19T09:02:57;18.40;99.90
68813;DHT22;55808;48.112;11.552;2022-08-19T09:05:30;18.30;99.90
68813;DHT22;55808;48.112;11.552;2022-08-19T09:08:04;18.30;99.90
68813;DHT22;55808;48.112;11.552;2022-08-19T09:10:42;18.30;99.90
68813;DHT22;55808;48.112;11.552;2022-08-19T09:13:18;18.30;99.90
68813;DHT22;55808;48.112;11.552;2022-08-19T09:15:58;18.40;99.90
68813;DHT22;55808;48.112;11.552;2022-08-19T09:18:29;18.50;99.90
68813;DHT22;55808;48.112;11.552;2022-08-19T09:21:03;18.40;99.90
68813;DHT22;55808;48.112;11.552;2022-08-19T09:23:29;18.50;99.90
68813;DHT22;55808;48.112;11.552;2022-08-19T09:25:54;18.50;99.90
68813;DHT22;55808;48.112;11.552;2022-08-19T09:28:20;18.50;99.90
68813;DHT22;55808;48.112;11.552;2022-08-19T09:30:45;18.40;99.90
68813;DHT22;55808;48.112;11.552;2022-08-19T09:33:11;18.40;99.90
68813;DHT22;55808;48.112;11.552;2022-08-19T09:35:37;18.50;99.90
68813;DHT22;55808;48.112;11.552;2022-08-19T09:38:03;18.50;99.90
68813;DHT22;55808;48.112;11.552;2022-08-19T09:40:29;18.50;99.90
68813;DHT22;55808;48.112;11.552;2022-08-19T09:42:55;18.60;99.90
68813;DHT22;55808;48.112;11.552;2022-08-19T09:45:22;18.60;99.90
68813;DHT22;55808;48.112;11.552;2022-08-19T09:47:52;18.60;99.90
68813;DHT22;55808;48.112;11.552;2022-08-19T09:50:18;18.70;99.90
68813;DHT22;55808;48.112;11.552;2022-08-19T09:52:45;18.70;99.90
68813;DHT22;55808;48.112;11.552;2022-08-19T09:55:11;18.90;99.90
68813;DHT22;55808;48.112;11.552;2022-08-19T09:57:37;19.00;99.90
68813;DHT22;55808;48.112;11.552;2022-08-19T10:00:05;18.80;99.90
68813;DHT22;55808;48.112;11.552;2022-08-19T10:02:31;18.80;99.90
68813;DHT22;55808;48.112;11.552;2022-08-19T10:04:56;18.80;99.90
68813;DHT22;55808;48.112;11.552;2022-08-19T10:07:40;18.70;99.90
68813;DHT22;55808;48.112;11.552;2022-08-19T10:10:07;18.70;99.90
68813;DHT22;55808;48.112;11.552;2022-08-19T10:12:34;18.70;99.90
68813;DHT22;55808;48.112;11.552;2022-08-19T10:15:02;18.70;99.90
68813;DHT22;55808;48.112;11.552;2022-08-19T10:17:29;18.60;99.90
68813;DHT22;55808;48.112;11.552;2022-08-19T10:19:55;18.70;99.90
68813;DHT22;55808;48.112;11.552;2022-08-19T10:22:20;18.80;99.90
68813;DHT22;55808;48.112;11.552;2022-08-19T10:24:46;19.00;99.90
68813;DHT22;55808;48.112;11.552;2022-08-19T10:27:12;19.20;99.90
68813;DHT22;55808;48.112;11.552;2022-08-19T10:29:40;19.20;99.90
68813;DHT22;55808;48.112;11.552;2022-08-19T10:32:07;19.20;99.90
68813;DHT22;55808;48.112;11.552;2022-08-19T10:34:35;19.30;99.90
68813;DHT22;55808;48.112;11.552;2022-08-19T10:37:01;19.50;99.90
68813;DHT22;55808;48.112;11.552;2022-08-19T10:39:29;19.20;99.90
68813;DHT22;55808;48.112;11.552;2022-08-19T10:41:56;19.00;99.90
68813;DHT22;55808;48.112;11.552;2022-08-19T10:44:22;18.90;99.90
68813;DHT22;55808;48.112;11.552;2022-08-19T10:46:49;19.20;99.90
68813;DHT22;55808;48.112;11.552;2022-08-19T10:49:15;19.70;99.90
68813;DHT22;55808;48.112;11.552;2022-08-19T10:51:41;20.10;99.90
68813;DHT22;55808;48.112;11.552;2022-08-19T10:54:46;20.00;99.90
68813;DHT22;55808;48.112;11.552;2022-08-19T10:57:31;19.50;99.90
68813;DHT22;55808;48.112;11.552;2022-08-19T10:59:56;20.70;99.90
68813;DHT22;55808;48.112;11.552;2022-08-19T11:02:22;21.20;99.90
68813;DHT22;55808;48.112;11.552;2022-08-19T11:04:48;20.30;99.90
68813;DHT22;55808;48.112;11.552;2022-08-19T11:07:16;19.90;99.90
68813;DHT22;55808;48.112;11.552;2022-08-19T11:09:42;19.90;99.90
68813;DHT22;55808;48.112;11.552;2022-08-19T11:12:09;19.40;99.90
68813;DHT22;55808;48.112;11.552;2022-08-19T11:14:35;19.20;99.90
68813;DHT22;55808;48.112;11.552;2022-08-19T11:17:03;19.30;99.90
68813;DHT22;55808;48.112;11.552;2022-08-19T11:19:30;19.30;99.90
68813;DHT22;55808;48.112;11.552;2022-08-19T11:21:56;19.20;99.90
68813;DHT22;55808;48.112;11.552;2022-08-19T11:24:24;19.00;99.90
68813;DHT22;55808;48.112;11.552;2022-08-19T11:26:52;19.00;99.90
68813;DHT22;55808;48.112;11.552;2022-08-19T11:29:20;19.10;99.90
68813;DHT22;55808;48.112;11.552;2022-08-19T11:31:48;19.40;99.90
68813;DHT22;55808;48.112;11.552;2022-08-19T11:34:21;19.50;99.90
68813;DHT22;55808;48.112;11.552;2022-08-19T11:36:48;19.20;99.90
68813;DHT22;55808;48.112;11.552;2022-08-19T11:39:16;18.80;99.90
68813;DHT22;55808;48.112;11.552;2022-08-19T11:41:42;18.70;99.90
68813;DHT22;55808;48.112;11.552;2022-08-19T11:44:08;18.80;99.90
68813;DHT22;55808;48.112;11.552;2022-08-19T11:46:36;18.80;99.90
68813;DHT22;55808;48.112;11.552;2022-08-19T11:49:03;18.90;99.90
68813;DHT22;55808;48.112;11.552;2022-08-19T11:51:31;18.90;99.90
68813;DHT22;55808;48.112;11.552;2022-08-19T11:53:58;18.90;99.90
68813;DHT22;55808;48.112;11.552;2022-08-19T11:56:25;19.00;99.90
68813;DHT22;55808;48.112;11.552;2022-08-19T11:58:52;19.00;99.90
68813;DHT22;55808;48.112;11.552;2022-08-19T12:01:20;19.10;99.90
68813;DHT22;55808;48.112;11.552;2022-08-19T12:03:48;19.20;99.90
68813;DHT22;55808;48.112;11.552;2022-08-19T12:06:16;19.30;99.90
68813;DHT22;55808;48.112;11.552;2022-08-19T12:08:43;19.30;99.90
68813;DHT22;55808;48.112;11.552;2022-08-19T12:11:10;19.40;99.90
68813;DHT22;55808;48.112;11.552;2022-08-19T12:13:37;19.30;99.90
68813;DHT22;55808;48.112;11.552;2022-08-19T12:16:15;19.20;99.90
68813;DHT22;55808;48.112;11.552;2022-08-19T12:18:42;19.10;99.90
68813;DHT22;55808;48.112;11.552;2022-08-19T12:21:23;19.10;99.90
68813;DHT22;55808;48.112;11.552;2022-08-19T12:23:54;19.20;99.90
68813;DHT22;55808;48.112;11.552;2022-08-19T12:26:20;19.00;99.90
68813;DHT22;55808;48.112;11.552;2022-08-19T12:28:46;19.10;99.90
68813;DHT22;55808;48.112;11.552;2022-08-19T12:31:12;19.20;99.90
68813;DHT22;55808;48.112;11.552;2022-08-19T12:33:39;19.20;99.90
68813;DHT22;55808;48.112;11.552;2022-08-19T12:36:06;19.20;99.90
68813;DHT22;55808;48.112;11.552;2022-08-19T12:38:33;19.20;99.90
68813;DHT22;55808;48.112;11.552;2022-08-19T12:41:00;19.20;99.90
68813;DHT22;55808;48.112;11.552;2022-08-19T12:43:28;19.50;99.90
68813;DHT22;55808;48.112;11.552;2022-08-19T12:45:55;19.70;99.90
68813;DHT22;55808;48.112;11.552;2022-08-19T12:48:21;19.80;99.90
68813;DHT22;55808;48.112;11.552;2022-08-19T12:50:47;19.70;99.90
68813;DHT22;55808;48.112;11.552;2022-08-19T12:53:14;19.80;99.90
68813;DHT22;55808;48.112;11.552;2022-08-19T12:55:40;19.80;99.90
68813;DHT22;55808;48.112;11.552;2022-08-19T12:58:06;20.00;99.90
68813;DHT22;55808;48.112;11.552;2022-08-19T13:00:32;20.20;99.90
68813;DHT22;55808;48.112;11.552;2022-08-19T13:02:58;20.40;99.90
68813;DHT22;55808;48.112;11.552;2022-08-19T13:05:27;20.50;99.90
68813;DHT22;55808;48.112;11.552;2022-08-19T13:07:55;20.80;99.90
68813;DHT22;55808;48.112;11.552;2022-08-19T13:10:28;21.50;99.90
68813;DHT22;55808;48.112;11.552;2022-08-19T13:12:54;20.90;99.90
68813;DHT22;55808;48.112;11.552;2022-08-19T13:15:21;21.40;99.90
68813;DHT22;55808;48.112;11.552;2022-08-19T13:17:51;22.00;99.90
68813;DHT22;55808;48.112;11.552;2022-08-19T13:20:19;21.90;99.90
68813;DHT22;55808;48.112;11.552;2022-08-19T13:22:46;21.40;99.90
68813;DHT22;55808;48.112;11.552;2022-08-19T13:25:13;20.90;99.90
68813;DHT22;55808;48.112;11.552;2022-08-19T13:27:39;21.30;99.90
68813;DHT22;55808;48.112;11.552;2022-08-19T13:30:08;22.00;99.90
68813;DHT22;55808;48.112;11.552;2022-08-19T13:32:53;21.70;99.90
68813;DHT22;55808;48.112;11.552;2022-08-19T13:35:45;21.50;99.90
68813;DHT22;55808;48.112;11.552;2022-08-19T13:38:13;22.00;99.90
68813;DHT22;55808;48.112;11.552;2022-08-19T13:40:40;21.70;99.90
68813;DHT22;55808;48.112;11.552;2022-08-19T13:43:06;20.80;99.90
68813;DHT22;55808;48.112;11.552;2022-08-19T13:45:33;20.50;99.90
68813;DHT22;55808;48.112;11.552;2022-08-19T13:48:00;20.40;99.90
68813;DHT22;55808;48.112;11.552;2022-08-19T13:50:28;20.50;99.90
68813;DHT22;55808;48.112;11.552;2022-08-19T13:52:56;20.70;99.90
68813;DHT22;55808;48.112;11.552;2022-08-19T13:55:23;20.20;99.90
68813;DHT22;55808;48.112;11.552;2022-08-19T13:57:53;20.40;99.90
68813;DHT22;55808;48.112;11.552;2022-08-19T14:00:19;20.00;99.90
68813;DHT22;55808;48.112;11.552;2022-08-19T14:02:47;20.00;99.90
68813;DHT22;55808;48.112;11.552;2022-08-19T14:05:15;20.10;99.90
68813;DHT22;55808;48.112;11.552;2022-08-19T14:07:41;19.90;99.90
68813;DHT22;55808;48.112;11.552;2022-08-19T14:10:08;19.80;99.90
68813;DHT22;55808;48.112;11.552;2022-08-19T14:12:35;20.20;99.90
68813;DHT22;55808;48.112;11.552;2022-08-19T14:15:01;21.10;99.90
68813;DHT22;55808;48.112;11.552;2022-08-19T14:17:28;20.60;99.90
68813;DHT22;55808;48.112;11.552;2022-08-19T14:20:02;20.40;99.90
68813;DHT22;55808;48.112;11.552;2022-08-19T14:22:32;20.70;99.90
68813;DHT22;55808;48.112;11.552;2022-08-19T14:24:58;21.00;99.90
68813;DHT22;55808;48.112;11.552;2022-08-19T14:27:24;20.70;99.90
68813;DHT22;55808;48.112;11.552;2022-08-19T14:29:51;20.90;99.90
68813;DHT22;55808;48.112;11.552;2022-08-19T14:32:17;21.10;99.90
68813;DHT22;55808;48.112;11.552;2022-08-19T14:34:47;20.90;99.90
68813;DHT22;55808;48.112;11.552;2022-08-19T14:37:13;20.70;99.90
68813;DHT22;55808;48.112;11.552;2022-08-19T14:39:42;20.50;99.90
68813;DHT22;55808;48.112;11.552;2022-08-19T14:42:09;20.20;99.90
68813;DHT22;55808;48.112;11.552;2022-08-19T14:44:35;20.00;99.90
68813;DHT22;55808;48.112;11.552;2022-08-19T14:47:00;19.90;99.90
68813;DHT22;55808;48.112;11.552;2022-08-19T14:49:26;19.60;99.90
68813;DHT22;55808;48.112;11.552;2022-08-19T14:51:52;19.50;99.90
68813;DHT22;55808;48.112;11.552;2022-08-19T14:54:18;19.60;99.90
68813;DHT22;55808;48.112;11.552;2022-08-19T14:56:43;19.60;99.90
68813;DHT22;55808;48.112;11.552;2022-08-19T14:59:09;19.60;99.90
68813;DHT22;55808;48.112;11.552;2022-08-19T15:01:35;19.60;99.90
68813;DHT22;55808;48.112;11.552;2022-08-19T15:04:01;19.60;99.90
68813;DHT22;55808;48.112;11.552;2022-08-19T15:06:28;19.60;99.90
68813;DHT22;55808;48.112;11.552;2022-08-19T15:08:54;19.50;99.90
68813;DHT22;55808;48.112;11.552;2022-08-19T15:11:22;19.50;99.90
68813;DHT22;55808;48.112;11.552;2022-08-19T15:13:51;19.70;99.90
68813;DHT22;55808;48.112;11.552;2022-08-19T15:16:19;19.90;99.90
68813;DHT22;55808;48.112;11.552;2022-08-19T15:18:46;19.70;99.90
68813;DHT22;55808;48.112;11.552;2022-08-19T15:21:15;19.80;99.90
68813;DHT22;55808;48.112;11.552;2022-08-19T15:23:45;19.80;99.90